createdAt,value
2017-10-24T00:01:20.840Z,10.60
2017-10-24T00:03:48.381Z,10.97
2017-10-24T00:06:15.947Z,11.00
2017-10-24T00:08:43.492Z,12.53
2017-10-24T00:11:11.060Z,10.27
2017-10-24T00:13:38.595Z,9.17
2017-10-24T00:16:06.163Z,10.00
2017-10-24T00:18:33.696Z,11.27
2017-10-24T00:21:02.027Z,10.90
2017-10-24T00:23:29.563Z,10.57
2017-10-24T00:25:57.119Z,11.10
2017-10-24T00:28:24.659Z,10.67
2017-10-24T00:30:52.991Z,11.70
2017-10-24T00:33:20.529Z,11.70
2017-10-24T00:35:48.094Z,11.53
2017-10-24T00:38:15.638Z,12.47
2017-10-24T00:40:43.201Z,13.50
2017-10-24T00:43:10.756Z,12.27
2017-10-24T00:45:38.295Z,14.17
2017-10-24T00:48:06.623Z,14.17
2017-10-24T00:50:34.163Z,14.17
2017-10-24T00:53:01.731Z,15.20
2017-10-24T00:55:29.271Z,12.53
2017-10-24T00:57:56.830Z,14.40
2017-10-24T01:00:24.369Z,12.83
2017-10-24T01:02:52.695Z,13.97
2017-10-24T01:05:20.235Z,14.37
2017-10-24T01:07:47.801Z,13.63
2017-10-24T01:10:15.344Z,13.57
2017-10-24T01:12:42.911Z,12.80
2017-10-24T01:15:10.453Z,14.70
2017-10-24T01:17:38.779Z,13.93
2017-10-24T01:20:06.314Z,13.40
2017-10-24T01:22:33.871Z,14.23
2017-10-24T01:25:01.409Z,13.33
2017-10-24T01:27:29.743Z,13.40
2017-10-24T01:29:58.048Z,13.30
2017-10-24T01:32:25.620Z,13.43
2017-10-24T01:34:53.923Z,13.87
2017-10-24T01:37:21.482Z,13.60
2017-10-24T01:39:49.026Z,14.20
2017-10-24T01:42:16.588Z,13.67
2017-10-24T01:44:44.126Z,13.03
2017-10-24T01:47:12.458Z,14.63
2017-10-24T01:49:39.998Z,14.17
2017-10-24T01:52:07.566Z,13.20
2017-10-24T01:54:35.105Z,14.57
2017-10-24T01:57:02.675Z,11.43
2017-10-24T01:59:30.217Z,12.00
2017-10-24T02:01:58.550Z,11.63
2017-10-24T02:04:26.094Z,11.83
2017-10-24T02:06:53.658Z,10.63
2017-10-24T02:09:21.198Z,10.80
2017-10-24T02:11:48.766Z,9.87
2017-10-24T02:14:16.305Z,8.80
2017-10-24T02:16:43.875Z,10.13
2017-10-24T02:19:11.432Z,8.67
2017-10-24T02:21:38.991Z,9.97
2017-10-24T02:24:06.527Z,10.40
2017-10-24T02:26:34.859Z,9.30
2017-10-24T02:29:03.158Z,9.30
2017-10-24T02:31:30.711Z,9.30
2017-10-24T02:33:58.248Z,9.90
2017-10-24T02:36:25.816Z,9.07
2017-10-24T02:38:53.363Z,9.40
2017-10-24T02:41:20.923Z,8.30
2017-10-24T02:43:48.462Z,10.30
2017-10-24T02:46:16.026Z,8.97
2017-10-24T02:48:43.563Z,9.10
2017-10-24T02:51:11.891Z,8.90
2017-10-24T02:53:39.418Z,8.00
2017-10-24T02:56:06.992Z,8.27
2017-10-24T02:58:34.519Z,7.80
2017-10-24T03:01:02.823Z,8.33
2017-10-24T03:03:30.383Z,8.27
2017-10-24T03:05:57.920Z,8.00
2017-10-24T03:08:26.250Z,7.23
2017-10-24T03:10:53.785Z,7.67
2017-10-24T03:13:21.353Z,7.80
2017-10-24T03:15:48.891Z,7.37
2017-10-24T03:18:16.454Z,9.13
2017-10-24T03:20:43.987Z,8.77
2017-10-24T03:23:12.313Z,7.40
2017-10-24T03:25:39.851Z,6.70
2017-10-24T03:28:07.416Z,6.47
2017-10-24T03:30:34.943Z,6.30
2017-10-24T03:33:03.267Z,6.93
2017-10-24T03:35:30.798Z,5.77
2017-10-24T03:37:58.363Z,5.50
2017-10-24T03:40:25.909Z,5.50
2017-10-24T03:42:54.237Z,5.57
2017-10-24T03:45:21.783Z,4.73
2017-10-24T03:47:49.351Z,5.00
2017-10-24T03:50:16.883Z,5.17
2017-10-24T03:52:44.444Z,4.60
2017-10-24T03:55:11.973Z,5.13
2017-10-24T03:57:40.306Z,4.87
2017-10-24T04:00:07.836Z,5.03
2017-10-24T04:02:35.395Z,4.67
2017-10-24T04:05:02.932Z,5.13
2017-10-24T04:07:31.259Z,5.93
2017-10-24T04:09:58.803Z,5.53
2017-10-24T04:12:26.356Z,5.73
2017-10-24T04:14:53.895Z,5.57
2017-10-24T04:17:22.222Z,5.37
2017-10-24T04:19:49.759Z,5.47
2017-10-24T04:22:17.323Z,5.10
2017-10-24T04:24:44.859Z,4.00
2017-10-24T04:27:12.419Z,4.87
2017-10-24T04:29:39.947Z,4.67
2017-10-24T04:32:07.511Z,4.63
2017-10-24T04:34:35.042Z,4.87
2017-10-24T04:37:02.606Z,4.97
2017-10-24T04:39:30.135Z,5.33
2017-10-24T04:41:57.690Z,5.20
2017-10-24T04:44:25.231Z,5.40
2017-10-24T04:46:53.562Z,5.97
2017-10-24T04:49:21.101Z,5.40
2017-10-24T04:51:48.683Z,4.50
2017-10-24T04:54:16.227Z,5.00
2017-10-24T04:56:43.803Z,5.40
2017-10-24T04:59:11.351Z,5.40
2017-10-24T05:01:38.883Z,4.63
2017-10-24T05:04:06.447Z,4.87
2017-10-24T05:06:33.989Z,4.93
2017-10-24T05:09:02.312Z,5.80
2017-10-24T05:11:29.850Z,6.73
2017-10-24T05:13:57.420Z,6.87
2017-10-24T05:16:24.959Z,6.43
2017-10-24T05:18:52.516Z,6.43
2017-10-24T05:21:20.053Z,6.43
2017-10-24T05:23:48.391Z,6.30
2017-10-24T05:26:16.698Z,7.23
2017-10-24T05:28:44.262Z,8.40
2017-10-24T05:31:11.804Z,9.23
2017-10-24T05:33:40.198Z,9.40
2017-10-24T05:36:07.883Z,9.07
2017-10-24T05:38:35.874Z,9.30
2017-10-24T05:41:03.678Z,9.93
2017-10-24T05:43:31.296Z,8.77
2017-10-24T05:45:59.717Z,9.00
2017-10-24T05:48:28.082Z,8.30
2017-10-24T05:50:55.625Z,8.37
2017-10-24T05:53:23.189Z,9.00
2017-10-24T05:55:50.727Z,10.00
2017-10-24T05:58:18.288Z,8.20
2017-10-24T06:00:45.833Z,8.97
2017-10-24T06:03:14.147Z,9.50
2017-10-24T06:05:41.691Z,10.43
2017-10-24T06:08:09.278Z,9.17
2017-10-24T06:10:36.847Z,9.60
2017-10-24T06:13:04.391Z,9.70
2017-10-24T06:15:32.168Z,10.13
2017-10-24T06:17:59.705Z,10.10
2017-10-24T06:20:27.272Z,9.60
2017-10-24T06:22:54.815Z,9.30
2017-10-24T06:25:22.383Z,9.20
2017-10-24T06:27:49.923Z,10.70
2017-10-24T06:30:18.256Z,10.03
2017-10-24T06:32:45.807Z,9.73
2017-10-24T06:35:14.133Z,10.97
2017-10-24T06:37:42.431Z,9.60
2017-10-24T06:40:09.991Z,8.10
2017-10-24T06:42:37.523Z,8.63
2017-10-24T06:45:05.850Z,8.23
2017-10-24T06:47:33.388Z,7.60
2017-10-24T06:50:00.948Z,7.90
2017-10-24T06:52:28.492Z,7.70
2017-10-24T06:54:56.066Z,7.40
2017-10-24T06:57:23.609Z,10.30
2017-10-24T06:59:51.175Z,8.57
2017-10-24T07:02:18.742Z,9.20
2017-10-24T07:04:46.279Z,8.07
2017-10-24T07:07:14.604Z,8.67
2017-10-24T07:09:42.139Z,8.20
2017-10-24T07:12:09.696Z,7.97
2017-10-24T07:14:37.227Z,8.00
2017-10-24T07:17:05.559Z,7.10
2017-10-24T07:19:33.096Z,8.10
2017-10-24T07:22:00.659Z,8.03
2017-10-24T07:24:28.194Z,7.47
2017-10-24T07:26:56.522Z,7.93
2017-10-24T07:29:24.059Z,7.80
2017-10-24T07:31:51.617Z,7.60
2017-10-24T07:34:19.150Z,7.43
2017-10-24T07:36:47.470Z,7.57
2017-10-24T07:39:15.011Z,6.97
2017-10-24T07:41:42.577Z,6.73
2017-10-24T07:44:10.113Z,7.73
2017-10-24T07:46:38.434Z,6.67
2017-10-24T07:49:05.971Z,7.53
2017-10-24T07:51:33.526Z,7.33
2017-10-24T07:54:01.060Z,7.17
2017-10-24T07:56:29.379Z,8.00
2017-10-24T07:58:56.915Z,7.20
2017-10-24T08:01:24.446Z,8.83
2017-10-24T08:03:52.003Z,7.30
2017-10-24T08:06:19.544Z,8.20
2017-10-24T08:08:47.103Z,8.20
2017-10-24T08:11:16.150Z,7.20
2017-10-24T08:13:43.707Z,7.63
2017-10-24T08:16:11.230Z,7.00
2017-10-24T08:18:38.795Z,6.80
2017-10-24T08:21:06.340Z,7.23
2017-10-24T08:23:33.958Z,7.63
2017-10-24T08:26:01.497Z,9.00
2017-10-24T08:28:29.822Z,9.00
2017-10-24T08:30:57.364Z,10.57
2017-10-24T08:33:24.922Z,10.80
2017-10-24T08:35:52.464Z,10.33
2017-10-24T08:38:20.035Z,9.50
2017-10-24T08:40:47.587Z,9.40
2017-10-24T08:43:15.148Z,8.37
2017-10-24T08:45:42.693Z,7.73
2017-10-24T08:48:10.262Z,7.47
2017-10-24T08:50:37.807Z,8.03
2017-10-24T08:53:06.154Z,6.70
2017-10-24T08:55:33.699Z,6.47
2017-10-24T08:58:01.276Z,7.90
2017-10-24T09:00:28.811Z,7.40
2017-10-24T09:02:56.375Z,7.23
2017-10-24T09:05:23.914Z,8.60
2017-10-24T09:07:51.476Z,7.27
2017-10-24T09:14:02.587Z,7.10
2017-10-24T09:22:48.020Z,7.00
2017-10-24T09:25:15.570Z,7.03
2017-10-24T09:27:43.107Z,7.27
2017-10-24T09:30:10.665Z,7.23
2017-10-24T09:32:40.123Z,9.47
2017-10-24T09:35:07.701Z,10.20
2017-10-24T09:37:36.008Z,8.33
2017-10-24T09:40:03.562Z,9.33
2017-10-24T09:42:31.103Z,9.00
2017-10-24T09:44:59.426Z,7.83
2017-10-24T09:47:26.960Z,9.37
2017-10-24T09:49:57.471Z,9.07
2017-10-24T09:52:25.776Z,10.50
2017-10-24T09:54:53.335Z,8.80
2017-10-24T09:57:20.875Z,10.50
2017-10-24T09:59:48.444Z,9.90
2017-10-24T10:02:15.983Z,9.90
2017-10-24T10:04:44.309Z,9.20
2017-10-24T10:07:11.847Z,8.67
2017-10-24T10:09:39.414Z,8.73
2017-10-24T10:12:09.703Z,9.80
2017-10-24T10:14:38.038Z,9.17
2017-10-24T10:17:05.588Z,8.90
2017-10-24T10:19:33.147Z,8.67
2017-10-24T10:22:00.691Z,8.13
2017-10-24T10:24:32.139Z,9.40
2017-10-24T10:26:59.670Z,8.93
2017-10-24T10:29:27.995Z,9.87
2017-10-24T10:31:55.535Z,9.13
2017-10-24T10:34:23.091Z,9.07
2017-10-24T10:36:50.626Z,8.87
2017-10-24T10:39:18.961Z,8.70
2017-10-24T10:41:46.490Z,8.90
2017-10-24T10:44:14.056Z,9.00
2017-10-24T10:46:41.592Z,8.73
2017-10-24T10:49:09.927Z,9.63
2017-10-24T10:51:37.471Z,11.10
2017-10-24T10:54:05.043Z,10.13
2017-10-24T10:56:32.577Z,9.67
2017-10-24T10:59:00.131Z,10.03
2017-10-24T11:01:27.679Z,11.27
2017-10-24T11:03:55.242Z,11.53
2017-10-24T11:06:22.779Z,9.40
2017-10-24T11:08:51.116Z,10.30
2017-10-24T11:11:18.648Z,8.93
2017-10-24T11:13:46.206Z,10.30
2017-10-24T11:16:13.752Z,11.00
2017-10-24T11:18:41.314Z,10.30
2017-10-24T11:21:09.609Z,10.27
2017-10-24T11:23:37.175Z,8.33
2017-10-24T11:26:04.713Z,8.53
2017-10-24T11:28:32.275Z,8.00
2017-10-24T11:30:59.807Z,8.60
2017-10-24T11:33:28.141Z,8.80
2017-10-24T11:35:55.679Z,7.90
2017-10-24T11:38:23.239Z,8.67
2017-10-24T11:40:50.779Z,7.57
2017-10-24T11:43:19.088Z,7.03
2017-10-24T11:45:46.654Z,9.10
2017-10-24T11:48:14.196Z,8.57
2017-10-24T11:50:41.756Z,8.43
2017-10-24T11:53:09.292Z,9.70
2017-10-24T11:55:37.663Z,8.87
2017-10-24T11:58:05.965Z,9.20
2017-10-24T12:00:33.524Z,10.00
2017-10-24T12:03:01.060Z,10.07
2017-10-24T12:05:29.383Z,9.30
2017-10-24T12:07:56.919Z,9.40
2017-10-24T12:10:24.481Z,9.00
2017-10-24T12:12:52.021Z,8.70
2017-10-24T12:15:20.346Z,8.80
2017-10-24T12:17:47.880Z,8.20
2017-10-24T12:20:15.435Z,7.83
2017-10-24T12:22:42.962Z,8.33
2017-10-24T12:25:10.520Z,6.93
2017-10-24T12:27:38.050Z,6.67
2017-10-24T12:30:05.615Z,7.90
2017-10-24T12:32:33.148Z,6.43
2017-10-24T12:35:00.699Z,6.20
2017-10-24T12:37:28.240Z,7.00
2017-10-24T12:39:56.560Z,5.10
2017-10-24T12:42:29.631Z,5.93
2017-10-24T12:45:02.129Z,5.83
2017-10-24T12:47:29.664Z,5.13
2017-10-24T12:50:15.028Z,5.00
2017-10-24T12:52:42.944Z,5.20
2017-10-24T12:55:10.506Z,5.00
2017-10-24T12:57:40.695Z,5.17
2017-10-24T13:00:10.936Z,4.70
2017-10-24T13:02:38.466Z,5.67
2017-10-24T13:05:21.832Z,5.17
2017-10-24T13:07:49.363Z,5.67
2017-10-24T13:10:16.923Z,5.10
2017-10-24T13:12:44.464Z,4.90
2017-10-24T13:15:12.792Z,5.03
2017-10-24T13:17:40.334Z,4.83
2017-10-24T13:20:07.891Z,4.83
2017-10-24T13:22:35.414Z,4.77
2017-10-24T13:25:03.733Z,4.93
2017-10-24T13:27:32.683Z,5.47
2017-10-24T13:30:01.025Z,5.47
2017-10-24T13:32:28.563Z,5.37
2017-10-24T13:34:56.095Z,4.83
2017-10-24T13:37:23.644Z,5.00
2017-10-24T13:39:51.944Z,5.63
2017-10-24T13:42:19.498Z,5.40
2017-10-24T13:44:47.027Z,6.00
2017-10-24T13:47:15.358Z,5.93
2017-10-24T13:49:42.900Z,5.37
2017-10-24T13:52:10.469Z,5.70
2017-10-24T13:54:38.003Z,5.90
2017-10-24T13:57:06.319Z,5.10
2017-10-24T13:59:33.843Z,5.57
2017-10-24T14:02:01.403Z,5.70
2017-10-24T14:04:34.715Z,5.63
2017-10-24T14:07:07.864Z,5.17
2017-10-24T14:09:40.972Z,6.10
2017-10-24T14:12:09.301Z,5.57
2017-10-24T14:14:36.839Z,5.20
2017-10-24T14:17:04.395Z,6.53
2017-10-24T14:19:31.931Z,5.00
2017-10-24T14:21:59.491Z,5.73
2017-10-24T14:24:27.789Z,5.47
2017-10-24T14:26:55.351Z,5.73
2017-10-24T14:29:22.892Z,5.40
2017-10-24T14:31:50.468Z,5.70
2017-10-24T14:34:18.004Z,5.33
2017-10-24T14:36:46.299Z,5.07
2017-10-24T14:39:13.847Z,6.33
2017-10-24T14:41:41.391Z,5.50
2017-10-24T14:44:09.719Z,5.93
2017-10-24T14:46:37.256Z,5.50
2017-10-24T14:49:04.811Z,6.00
2017-10-24T14:51:32.346Z,6.57
2017-10-24T14:54:00.681Z,6.00
2017-10-24T14:56:28.212Z,6.03
2017-10-24T14:58:55.774Z,6.70
2017-10-24T15:01:23.315Z,6.57
2017-10-24T15:03:51.630Z,5.20
2017-10-24T15:06:19.158Z,5.20
2017-10-24T15:08:46.716Z,5.40
2017-10-24T15:11:14.263Z,5.60
2017-10-24T15:13:42.583Z,5.93
2017-10-24T15:16:10.106Z,6.10
2017-10-24T15:18:38.429Z,6.60
2017-10-24T15:21:05.959Z,8.13
2017-10-24T15:23:33.525Z,6.83
2017-10-24T15:26:01.059Z,7.43
2017-10-24T15:28:29.388Z,7.47
2017-10-24T15:30:56.924Z,7.37
2017-10-24T15:33:24.483Z,7.93
2017-10-24T15:35:52.015Z,7.60
2017-10-24T15:38:20.306Z,7.80
2017-10-24T15:40:47.860Z,7.67
2017-10-24T15:43:16.159Z,8.50
2017-10-24T15:45:43.716Z,7.33
2017-10-24T15:48:11.247Z,7.40
2017-10-24T15:50:39.580Z,9.67
2017-10-24T15:53:07.886Z,8.83
2017-10-24T15:55:35.442Z,8.43
2017-10-24T15:58:02.975Z,9.17
2017-10-24T16:00:30.540Z,8.20
2017-10-24T16:02:58.073Z,9.03
2017-10-24T16:05:25.632Z,8.00
2017-10-24T16:07:53.167Z,8.97
2017-10-24T16:10:21.500Z,9.80
2017-10-24T16:12:49.048Z,8.20
2017-10-24T16:15:16.615Z,10.80
2017-10-24T16:17:44.152Z,11.70
2017-10-24T16:20:11.703Z,10.50
2017-10-24T16:22:39.241Z,9.80
2017-10-24T16:25:07.559Z,10.60
2017-10-24T16:27:35.096Z,10.53
2017-10-24T16:30:02.670Z,12.20
2017-10-24T16:32:30.233Z,10.50
2017-10-24T16:34:57.804Z,11.07
2017-10-24T16:37:25.342Z,10.73
2017-10-24T16:39:52.914Z,12.20
2017-10-24T16:42:20.459Z,10.00
2017-10-24T16:44:48.023Z,11.43
2017-10-24T16:47:15.571Z,9.90
2017-10-24T16:49:43.140Z,8.97
2017-10-24T16:52:10.675Z,11.13
2017-10-24T16:54:38.976Z,12.43
2017-10-24T16:57:06.550Z,11.07
2017-10-24T16:59:34.099Z,11.50
2017-10-24T17:02:01.672Z,11.43
2017-10-24T17:04:29.230Z,11.50
2017-10-24T17:06:56.797Z,10.53
2017-10-24T17:09:24.340Z,11.27
2017-10-24T17:11:51.912Z,11.07
2017-10-24T17:14:19.459Z,11.00
2017-10-24T17:16:47.025Z,11.50
2017-10-24T17:19:14.567Z,12.53
2017-10-24T17:21:42.135Z,11.80
2017-10-24T17:24:09.676Z,13.40
2017-10-24T17:26:38.003Z,13.70
2017-10-24T17:29:05.548Z,13.27
2017-10-24T17:31:33.116Z,14.10
2017-10-24T17:34:00.652Z,14.00
2017-10-24T17:36:28.215Z,13.77
2017-10-24T17:38:55.769Z,15.50
2017-10-24T17:41:23.346Z,15.27
2017-10-24T17:43:50.887Z,16.40
2017-10-24T17:46:18.489Z,15.37
2017-10-24T17:48:46.041Z,14.87
2017-10-24T17:51:13.604Z,14.07
2017-10-24T17:53:41.162Z,15.33
2017-10-24T17:56:08.726Z,15.40
2017-10-24T17:58:36.288Z,14.73
2017-10-24T18:01:03.856Z,15.50
2017-10-24T18:03:31.404Z,14.10
2017-10-24T18:05:58.987Z,15.00
2017-10-24T18:08:26.541Z,14.90
2017-10-24T18:10:54.132Z,13.70
2017-10-24T18:13:22.440Z,14.13
2017-10-24T18:15:50.004Z,13.97
2017-10-24T18:18:17.536Z,13.30
2017-10-24T18:20:45.114Z,14.30
2017-10-24T18:23:12.650Z,13.73
2017-10-24T18:25:40.976Z,13.47
2017-10-24T18:28:08.516Z,13.97
2017-10-24T18:30:36.088Z,14.73
2017-10-24T18:33:03.651Z,14.20
2017-10-24T18:35:31.993Z,14.33
2017-10-24T18:37:59.550Z,15.77
2017-10-24T18:40:27.140Z,14.00
2017-10-24T18:42:54.686Z,14.17
2017-10-24T18:45:22.270Z,13.37
2017-10-24T18:47:49.816Z,13.03
2017-10-24T18:50:17.387Z,13.50
2017-10-24T18:52:44.927Z,15.73
2017-10-24T18:55:12.492Z,13.73
2017-10-24T18:57:40.050Z,14.70
2017-10-24T19:00:07.598Z,16.40
2017-10-24T19:02:35.179Z,16.80
2017-10-24T19:05:02.735Z,15.30
2017-10-24T19:07:30.316Z,13.67
2017-10-24T19:09:57.874Z,15.80
2017-10-24T19:12:25.458Z,14.47
2017-10-24T19:14:53.002Z,15.73
2017-10-24T19:17:20.590Z,15.30
2017-10-24T19:19:48.135Z,15.13
2017-10-24T19:22:15.740Z,17.10
2017-10-24T19:24:43.278Z,15.87
2017-10-24T19:27:11.615Z,15.93
2017-10-24T19:29:39.174Z,17.07
2017-10-24T19:32:06.736Z,15.73
2017-10-24T19:34:34.280Z,17.07
2017-10-24T19:37:01.857Z,16.90
2017-10-24T19:39:30.167Z,18.67
2017-10-24T19:41:58.509Z,17.70
2017-10-24T19:44:26.070Z,19.90
2017-10-24T19:46:53.645Z,16.40
2017-10-24T19:49:21.193Z,18.57
2017-10-24T19:51:48.763Z,18.57
2017-10-24T19:54:16.308Z,17.50
2017-10-24T19:56:43.875Z,20.23
2017-10-24T19:59:11.427Z,18.50
2017-10-24T20:01:39.008Z,20.80
2017-10-24T20:04:06.568Z,20.53
2017-10-24T20:06:34.145Z,19.30
2017-10-24T20:09:02.532Z,19.50
2017-10-24T20:11:30.861Z,21.13
2017-10-24T20:13:58.411Z,21.57
2017-10-24T20:16:26.004Z,19.70
2017-10-24T20:18:53.578Z,23.47
2017-10-24T20:21:21.159Z,20.93
2017-10-24T20:23:49.468Z,21.00
2017-10-24T20:26:17.033Z,22.33
2017-10-24T20:28:44.570Z,19.83
2017-10-24T20:31:12.139Z,21.27
2017-10-24T20:33:39.687Z,22.30
2017-10-24T20:36:07.260Z,21.87
2017-10-24T20:38:34.808Z,21.07
2017-10-24T20:41:02.372Z,22.60
2017-10-24T20:43:29.919Z,20.83
2017-10-24T20:45:57.490Z,20.10
2017-10-24T20:48:25.035Z,21.40
2017-10-24T20:50:53.364Z,20.20
2017-10-24T20:53:21.683Z,21.90
2017-10-24T20:55:50.019Z,22.20
2017-10-24T20:58:17.572Z,22.57
2017-10-24T21:00:45.150Z,20.67
2017-10-24T21:03:12.703Z,21.10
2017-10-24T21:05:40.298Z,21.43
2017-10-24T21:08:08.651Z,21.67
2017-10-24T21:10:36.219Z,21.37
2017-10-24T21:13:03.791Z,21.97
2017-10-24T21:15:31.408Z,21.20
2017-10-24T21:17:59.236Z,21.10
2017-10-24T21:20:26.785Z,20.13
2017-10-24T21:22:55.123Z,23.07
2017-10-24T21:25:22.688Z,21.67
2017-10-24T21:27:51.027Z,21.87
2017-10-24T21:30:18.575Z,22.27
2017-10-24T21:32:46.143Z,20.53
2017-10-24T21:35:13.688Z,19.60
2017-10-24T21:37:42.053Z,22.63
2017-10-24T21:40:09.592Z,20.03
2017-10-24T21:42:37.164Z,20.30
2017-10-24T21:45:04.718Z,22.87
2017-10-24T21:47:32.292Z,19.47
2017-10-24T21:50:00.619Z,20.60
2017-10-24T21:52:28.179Z,19.10
2017-10-24T21:54:55.720Z,17.17
2017-10-24T21:57:23.292Z,17.47
2017-10-24T21:59:50.837Z,19.03
2017-10-24T22:02:18.436Z,16.67
2017-10-24T22:04:45.983Z,18.80
2017-10-24T22:07:13.541Z,17.73
2017-10-24T22:09:41.074Z,17.90
2017-10-24T22:12:08.639Z,19.17
2017-10-24T22:14:36.171Z,20.03
2017-10-24T22:17:04.499Z,20.50
2017-10-24T22:19:32.031Z,20.50
2017-10-24T22:21:59.591Z,20.20
2017-10-24T22:24:27.134Z,18.40
2017-10-24T22:26:55.464Z,19.47
2017-10-24T22:29:22.997Z,18.47
2017-10-24T22:52:08.752Z,20.07
2017-10-24T22:55:01.195Z,20.30
2017-10-24T22:57:28.761Z,19.47
2017-10-24T22:59:57.078Z,19.17
2017-10-24T23:02:25.403Z,16.60
2017-10-24T23:04:52.939Z,16.07
2017-10-24T23:07:20.506Z,15.60
2017-10-24T23:09:48.046Z,15.40
2017-10-24T23:12:16.370Z,16.67
2017-10-24T23:14:43.915Z,15.20
2017-10-24T23:17:11.488Z,16.40
2017-10-24T23:19:39.020Z,15.13
2017-10-24T23:22:06.586Z,14.77
2017-10-24T23:24:34.126Z,15.07
2017-10-24T23:27:01.666Z,14.23
2017-10-24T23:29:30.010Z,15.20
2017-10-24T23:31:57.564Z,15.27
2017-10-24T23:34:25.126Z,14.50
2017-10-24T23:36:52.665Z,14.00
2017-10-24T23:39:20.232Z,14.10
2017-10-24T23:41:47.774Z,13.90
2017-10-24T23:44:15.334Z,13.90
2017-10-24T23:46:42.875Z,13.63
2017-10-24T23:49:11.217Z,11.27
2017-10-24T23:51:38.771Z,11.63
2017-10-24T23:54:06.340Z,11.10
2017-10-24T23:56:33.874Z,12.73
2017-10-24T23:59:01.426Z,12.87
